Time;durP1;ratioP1;P1;durP2;ratioP2;P2;SDS_P1;SDS_P2;PMS_P1;PMS_P2;Temp;Humidity;BMP_temperature;BMP_pressure;BME280_temperature;BME280_humidity;BME280_pressure;Samples;Min_cycle;Max_cycle;Signal;HPM_P1;HPM_P2
2022/10/29 00:00:28;;;;;;;48.60;31.48;;;27.70;99.90;;;;;;5006679;28;20403;-62
2022/10/29 00:02:55;;;;;;;51.10;31.35;;;27.70;99.90;;;;;;4995344;28;20050;-59
2022/10/29 00:05:21;;;;;;;52.63;30.40;;;27.80;99.90;;;;;;4995919;28;20048;-63
2022/10/29 00:07:49;;;;;;;41.42;27.77;;;27.80;99.90;;;;;;4995667;28;20018;-62
2022/10/29 00:10:18;;;;;;;39.60;26.30;;;27.80;99.90;;;;;;4995941;28;20034;-63
2022/10/29 00:12:44;;;;;;;174.45;110.50;;;27.90;99.90;;;;;;5001700;28;20026;-64
2022/10/29 00:15:11;;;;;;;70.45;44.78;;;27.90;99.90;;;;;;5009120;28;20034;-62
2022/10/29 00:17:37;;;;;;;159.43;105.60;;;27.90;99.90;;;;;;5015341;28;20033;-62
2022/10/29 00:20:05;;;;;;;60.30;39.30;;;27.90;99.90;;;;;;5015053;28;20109;-62
2022/10/29 00:22:31;;;;;;;45.67;21.45;;;27.90;99.90;;;;;;5014362;28;20029;-62
2022/10/29 00:24:58;;;;;;;30.38;20.58;;;27.90;99.90;;;;;;5012148;28;20036;-62
2022/10/29 00:27:25;;;;;;;40.42;18.23;;;27.90;99.90;;;;;;4995286;28;20032;-63
2022/10/29 00:29:53;;;;;;;34.58;18.42;;;27.90;99.90;;;;;;5001103;28;20032;-62
2022/10/29 00:32:20;;;;;;;40.15;28.63;;;27.90;99.90;;;;;;4998562;28;20479;-63
2022/10/29 00:34:46;;;;;;;72.75;47.10;;;28.00;99.90;;;;;;4994211;28;20049;-63
2022/10/29 00:37:13;;;;;;;28.08;20.45;;;28.00;99.90;;;;;;4995341;28;20034;-63
2022/10/29 00:39:39;;;;;;;73.30;44.05;;;28.00;99.90;;;;;;5000904;28;20043;-64
2022/10/29 00:42:12;;;;;;;44.40;24.73;;;28.00;99.90;;;;;;5013457;28;20026;-62
2022/10/29 00:44:40;;;;;;;88.68;52.88;;;28.00;99.90;;;;;;5013938;28;20037;-63
2022/10/29 00:47:36;;;;;;;44.60;22.42;;;28.00;99.90;;;;;;5014880;28;20467;-63
2022/10/29 00:50:10;;;;;;;29.02;17.42;;;28.10;99.90;;;;;;5014028;28;20026;-56
2022/10/29 00:52:42;;;;;;;154.93;37.33;;;28.20;99.90;;;;;;5002990;28;20032;-59
2022/10/29 00:55:11;;;;;;;55.50;21.95;;;28.20;99.90;;;;;;5014466;28;20512;-62
2022/10/29 00:57:41;;;;;;;32.72;19.67;;;28.20;99.90;;;;;;5014442;28;20104;-63
2022/10/29 01:00:09;;;;;;;37.33;21.08;;;28.20;99.90;;;;;;5003078;28;20451;-63
2022/10/29 01:02:37;;;;;;;35.85;21.92;;;28.20;99.90;;;;;;5003664;28;20034;-62
2022/10/29 01:05:05;;;;;;;33.03;21.48;;;28.20;99.90;;;;;;5014434;28;20160;-64
2022/10/29 01:07:32;;;;;;;38.95;23.85;;;28.20;99.90;;;;;;5013959;28;20489;-62
2022/10/29 01:09:58;;;;;;;43.10;24.33;;;28.30;99.90;;;;;;5014350;28;20401;-63
2022/10/29 01:12:31;;;;;;;38.97;22.67;;;28.30;99.90;;;;;;5014188;28;20034;-64
2022/10/29 01:15:05;;;;;;;42.83;26.30;;;28.40;99.90;;;;;;5014202;28;20218;-63
2022/10/29 01:17:46;;;;;;;41.60;25.08;;;28.30;99.90;;;;;;5014148;28;20113;-63
2022/10/29 01:20:42;;;;;;;69.57;29.58;;;28.30;99.90;;;;;;5014134;28;20029;-63
2022/10/29 01:23:48;;;;;;;47.38;28.83;;;28.30;99.90;;;;;;5004679;28;20038;-64
2022/10/29 01:26:55;;;;;;;57.40;34.45;;;28.40;99.90;;;;;;5014014;28;20022;-63
2022/10/29 01:29:49;;;;;;;58.20;32.40;;;28.60;99.90;;;;;;4972653;28;20065;-62
2022/10/29 01:32:42;;;;;;;61.00;32.97;;;28.60;99.90;;;;;;4972222;28;20034;-63
2022/10/29 01:35:14;;;;;;;52.05;31.40;;;28.70;99.90;;;;;;4972522;28;20090;-63
2022/10/29 01:38:00;;;;;;;;;;;28.70;99.90;;;;;;4973124;28;20063;-63
2022/10/29 01:40:48;;;;;;;51.55;33.03;;;28.90;99.90;;;;;;4972401;28;19936;-63
2022/10/29 01:43:24;;;;;;;65.10;44.72;;;29.00;99.90;;;;;;4972566;28;20047;-64
2022/10/29 01:46:16;;;;;;;53.33;34.40;;;29.10;99.90;;;;;;4972153;28;20085;-63
2022/10/29 01:48:46;;;;;;;45.03;28.73;;;29.00;99.90;;;;;;4896046;29;20040;-62
2022/10/29 01:51:22;;;;;;;109.88;69.80;;;28.90;99.90;;;;;;4896353;29;20415;-62
2022/10/29 01:53:49;;;;;;;49.08;32.97;;;28.90;99.90;;;;;;4896058;29;20393;-62
2022/10/29 01:56:16;;;;;;;43.08;29.20;;;29.00;99.90;;;;;;4895752;29;20099;-63
2022/10/29 01:58:47;;;;;;;54.08;32.30;;;29.00;99.90;;;;;;4900272;29;20491;-62
2022/10/29 02:01:50;;;;;;;58.60;34.20;;;29.40;99.90;;;;;;4933850;29;20500;-64
2022/10/29 02:04:37;;;;;;;64.18;31.42;;;29.60;99.90;;;;;;4895602;29;20491;-63
2022/10/29 02:07:12;;;;;;;96.80;51.60;;;29.60;99.90;;;;;;4893667;29;20036;-62
2022/10/29 02:09:50;;;;;;;64.15;37.47;;;29.70;99.90;;;;;;4896060;29;20067;-63
2022/10/29 02:12:21;;;;;;;73.15;45.95;;;29.70;99.90;;;;;;4895962;29;20056;-61
2022/10/29 02:14:56;;;;;;;114.13;57.78;;;29.70;99.90;;;;;;4896056;29;20037;-61
2022/10/29 02:17:23;;;;;;;72.07;40.10;;;29.70;99.90;;;;;;4895650;29;20028;-63
2022/10/29 02:19:50;;;;;;;71.95;39.63;;;29.50;99.90;;;;;;4896135;29;20089;-63
2022/10/29 02:22:16;;;;;;;96.82;54.75;;;29.60;99.90;;;;;;4895854;29;20108;-64
2022/10/29 02:24:43;;;;;;;82.60;46.88;;;29.70;99.90;;;;;;4896268;29;20028;-61
2022/10/29 02:27:09;;;;;;;88.55;47.88;;;29.80;99.90;;;;;;4895973;29;20483;-62
2022/10/29 02:29:36;;;;;;;199.85;49.67;;;29.70;99.90;;;;;;4896071;29;20028;-63
2022/10/29 02:32:02;;;;;;;70.60;36.33;;;29.50;99.90;;;;;;4895794;29;20111;-62
2022/10/29 02:34:29;;;;;;;61.00;36.92;;;29.70;99.90;;;;;;4895898;29;20048;-63
2022/10/29 02:36:55;;;;;;;70.50;43.50;;;29.50;99.90;;;;;;4895484;29;20520;-62
2022/10/29 02:39:22;;;;;;;295.40;202.02;;;29.60;99.90;;;;;;4895543;29;20040;-63
2022/10/29 02:41:48;;;;;;;118.13;75.05;;;29.50;99.90;;;;;;4990658;28;20037;-64
2022/10/29 02:44:15;;;;;;;54.88;38.05;;;29.50;99.90;;;;;;5013186;28;20018;-63
2022/10/29 02:46:41;;;;;;;60.63;40.72;;;29.50;99.90;;;;;;5012874;28;20105;-60
2022/10/29 02:49:08;;;;;;;61.33;42.00;;;29.50;99.90;;;;;;5013055;28;20440;-62
2022/10/29 02:51:34;;;;;;;81.32;57.40;;;29.60;99.90;;;;;;5012973;28;20364;-62
2022/10/29 02:54:01;;;;;;;65.05;42.85;;;29.60;99.90;;;;;;5006881;28;20044;-62
2022/10/29 02:56:27;;;;;;;62.13;41.03;;;29.60;99.90;;;;;;4993572;28;20026;-63
2022/10/29 02:58:54;;;;;;;60.75;39.25;;;29.60;99.90;;;;;;5000063;28;20084;-61
2022/10/29 03:01:20;;;;;;;61.05;38.33;;;29.50;99.90;;;;;;5007815;28;20072;-62
2022/10/29 03:03:47;;;;;;;56.20;38.40;;;29.50;99.90;;;;;;5016513;28;20100;-63
2022/10/29 03:06:15;;;;;;;59.75;46.72;;;29.50;99.90;;;;;;5016717;28;20046;-62
2022/10/29 03:08:42;;;;;;;54.55;38.72;;;29.60;99.90;;;;;;5015631;28;20022;-64
2022/10/29 03:11:08;;;;;;;53.08;35.22;;;29.70;99.90;;;;;;5014978;28;20045;-63
2022/10/29 03:13:35;;;;;;;65.88;45.70;;;29.80;99.90;;;;;;5014394;28;20018;-62
2022/10/29 03:16:02;;;;;;;50.03;34.35;;;29.90;99.90;;;;;;5006856;28;20034;-59
2022/10/29 03:18:28;;;;;;;45.85;31.58;;;29.90;99.90;;;;;;5017177;28;20033;-64
2022/10/29 03:20:55;;;;;;;98.65;70.47;;;30.00;99.90;;;;;;5016503;28;20474;-63
2022/10/29 03:23:21;;;;;;;44.70;33.63;;;30.10;99.90;;;;;;5016055;28;20080;-57
2022/10/29 03:25:51;;;;;;;54.30;36.10;;;30.20;99.90;;;;;;5016181;28;20022;-60
2022/10/29 03:28:21;;;;;;;241.65;190.18;;;30.30;99.90;;;;;;5016196;28;20037;-62
2022/10/29 03:30:48;;;;;;;114.32;76.70;;;30.30;99.90;;;;;;5015989;28;20022;-61
2022/10/29 03:33:14;;;;;;;127.22;95.85;;;30.40;99.90;;;;;;5015261;28;20391;-57
2022/10/29 03:35:41;;;;;;;523.03;415.05;;;30.50;99.90;;;;;;5003280;28;20026;-60
2022/10/29 03:38:07;;;;;;;429.52;334.63;;;30.60;99.90;;;;;;4997032;28;20030;-65
2022/10/29 03:40:34;;;;;;;108.18;78.95;;;30.70;99.90;;;;;;5015721;28;20045;-63
2022/10/29 03:43:00;;;;;;;438.20;390.13;;;30.70;99.90;;;;;;5007384;28;20026;-62
2022/10/29 03:45:27;;;;;;;143.77;111.55;;;30.70;99.90;;;;;;4996091;28;20034;-62
2022/10/29 03:47:54;;;;;;;95.03;65.65;;;30.80;99.90;;;;;;4997227;28;20046;-63
2022/10/29 03:50:21;;;;;;;79.75;57.72;;;30.70;99.90;;;;;;5003442;28;20379;-62
2022/10/29 03:52:47;;;;;;;91.97;64.10;;;30.60;99.90;;;;;;4996018;28;20028;-61
2022/10/29 03:55:14;;;;;;;384.90;258.88;;;30.60;99.90;;;;;;4996172;28;20034;-62
2022/10/29 03:57:40;;;;;;;116.68;79.72;;;30.70;99.90;;;;;;4996045;28;20022;-58
2022/10/29 04:00:08;;;;;;;82.43;47.65;;;30.80;99.90;;;;;;4995962;28;20026;-64
2022/10/29 04:02:34;;;;;;;88.60;54.38;;;30.90;99.90;;;;;;4995851;28;20532;-62
2022/10/29 04:05:01;;;;;;;63.90;45.58;;;30.90;99.90;;;;;;4995706;28;20022;-67
2022/10/29 04:07:27;;;;;;;120.43;72.47;;;31.00;99.90;;;;;;4995892;28;20034;-62
2022/10/29 04:09:54;;;;;;;784.42;557.15;;;31.20;99.90;;;;;;4995388;28;20440;-63
2022/10/29 04:12:20;;;;;;;519.72;336.00;;;31.30;99.90;;;;;;4995905;28;20027;-57
2022/10/29 04:14:47;;;;;;;324.73;197.57;;;31.30;99.90;;;;;;4996144;28;20053;-58
2022/10/29 04:17:14;;;;;;;234.25;140.75;;;31.40;99.90;;;;;;4995811;28;20031;-60
2022/10/29 04:19:40;;;;;;;93.72;65.90;;;31.40;99.90;;;;;;4995897;28;20026;-60
2022/10/29 04:22:07;;;;;;;1999.90;999.90;;;31.30;99.90;;;;;;4995566;28;20120;-60
2022/10/29 04:24:34;;;;;;;532.22;408.83;;;31.20;99.90;;;;;;4995533;28;20056;-67
2022/10/29 04:27:00;;;;;;;253.15;171.55;;;31.10;99.90;;;;;;4995786;28;20023;-63
2022/10/29 04:29:27;;;;;;;163.15;118.90;;;31.00;99.90;;;;;;4995684;28;20105;-64
2022/10/29 04:31:53;;;;;;;113.10;80.22;;;31.00;99.90;;;;;;4995369;28;20085;-64
2022/10/29 04:34:20;;;;;;;120.03;85.65;;;30.90;99.90;;;;;;4995333;28;20096;-64
2022/10/29 04:36:46;;;;;;;112.25;80.15;;;30.90;99.90;;;;;;4996095;28;20034;-64
2022/10/29 04:39:13;;;;;;;103.70;76.65;;;31.00;99.90;;;;;;5006186;28;20373;-64
2022/10/29 04:41:39;;;;;;;86.72;66.03;;;30.90;99.90;;;;;;4995087;28;20419;-64
2022/10/29 04:44:06;;;;;;;196.05;144.60;;;30.90;99.90;;;;;;5019968;28;20030;-64
2022/10/29 04:46:32;;;;;;;114.20;78.97;;;30.80;99.90;;;;;;5034316;28;20072;-64
2022/10/29 04:48:59;;;;;;;249.57;169.77;;;30.90;99.90;;;;;;5034426;28;20079;-64
2022/10/29 04:51:26;;;;;;;239.10;176.10;;;31.00;99.90;;;;;;5034296;28;20052;-65
2022/10/29 04:53:53;;;;;;;169.60;110.45;;;31.10;99.90;;;;;;5034211;28;20068;-65
2022/10/29 04:56:20;;;;;;;87.72;59.85;;;31.20;99.90;;;;;;5033976;28;20500;-64
2022/10/29 04:58:49;;;;;;;111.57;75.20;;;31.20;99.90;;;;;;5013957;28;20046;-63
2022/10/29 05:01:16;;;;;;;139.95;90.95;;;31.20;99.90;;;;;;5011951;28;20036;-68
2022/10/29 05:03:42;;;;;;;192.82;136.55;;;31.20;99.90;;;;;;5012901;28;20038;-66
2022/10/29 05:06:09;;;;;;;152.38;105.90;;;31.20;99.90;;;;;;5012123;28;20021;-68
2022/10/29 05:08:35;;;;;;;226.00;155.50;;;31.10;99.90;;;;;;5011642;28;20032;-68
2022/10/29 05:11:04;;;;;;;1774.55;923.63;;;31.10;99.90;;;;;;5011803;28;20064;-67
2022/10/29 05:13:32;;;;;;;633.85;452.40;;;31.10;99.90;;;;;;5011299;28;20030;-70
2022/10/29 05:15:58;;;;;;;135.73;88.38;;;31.00;99.90;;;;;;5010565;28;20069;-67
2022/10/29 05:18:25;;;;;;;92.18;66.97;;;31.10;99.90;;;;;;5012072;28;20072;-68
2022/10/29 05:20:54;;;;;;;120.43;76.93;;;31.00;99.90;;;;;;5011148;28;20033;-66
2022/10/29 05:23:20;;;;;;;118.53;76.47;;;31.00;99.90;;;;;;5011079;28;20120;-65
2022/10/29 05:25:48;;;;;;;101.70;67.65;;;31.10;99.90;;;;;;5010261;28;20479;-67
2022/10/29 05:28:20;;;;;;;89.97;63.92;;;31.00;99.90;;;;;;5012633;28;20578;-66
2022/10/29 05:30:48;;;;;;;107.18;62.88;;;31.00;99.90;;;;;;5011518;28;20017;-65
2022/10/29 05:33:20;;;;;;;99.05;63.28;;;31.00;99.90;;;;;;5013899;28;20033;-63
2022/10/29 05:35:46;;;;;;;91.22;61.13;;;30.90;99.90;;;;;;5011174;28;20033;-65
2022/10/29 05:38:14;;;;;;;94.38;61.42;;;30.90;99.90;;;;;;5013331;28;20391;-65
2022/10/29 05:40:43;;;;;;;76.28;54.33;;;30.90;99.90;;;;;;5013458;28;20050;-64
2022/10/29 05:43:14;;;;;;;74.60;53.22;;;30.90;99.90;;;;;;5012221;28;20471;-65
2022/10/29 05:45:41;;;;;;;81.45;51.13;;;30.90;99.90;;;;;;5013340;28;20029;-64
2022/10/29 05:48:09;;;;;;;67.40;49.00;;;30.90;99.90;;;;;;5010936;28;20022;-65
2022/10/29 05:50:36;;;;;;;95.75;59.25;;;30.90;99.90;;;;;;5013572;28;20413;-64
2022/10/29 05:53:05;;;;;;;90.68;57.85;;;30.90;99.90;;;;;;5012732;28;20064;-64
2022/10/29 05:55:33;;;;;;;152.85;79.80;;;30.90;99.90;;;;;;5013577;28;20080;-63
2022/10/29 05:58:03;;;;;;;104.63;65.57;;;30.90;99.90;;;;;;5013462;28;20034;-63
2022/10/29 06:00:32;;;;;;;162.77;101.72;;;30.90;99.90;;;;;;5011167;28;20419;-64
2022/10/29 06:02:59;;;;;;;82.13;58.28;;;31.00;99.90;;;;;;5013250;28;20029;-65
2022/10/29 06:05:26;;;;;;;82.38;59.65;;;31.00;99.90;;;;;;5013099;28;20365;-64
2022/10/29 06:07:54;;;;;;;88.95;62.38;;;30.90;99.90;;;;;;5013463;28;20083;-63
2022/10/29 06:10:21;;;;;;;110.63;74.22;;;31.00;99.90;;;;;;5012655;28;20033;-62
2022/10/29 06:12:48;;;;;;;83.85;63.08;;;31.00;99.90;;;;;;5012118;28;20105;-62
2022/10/29 06:15:16;;;;;;;113.90;72.40;;;31.10;99.90;;;;;;5012194;28;20430;-64
2022/10/29 06:17:43;;;;;;;56.90;37.22;;;31.00;99.90;;;;;;5011986;28;20037;-63
2022/10/29 06:20:11;;;;;;;63.47;37.80;;;31.00;99.90;;;;;;5012218;28;20030;-62
2022/10/29 06:22:38;;;;;;;84.57;48.50;;;31.00;99.90;;;;;;5006957;28;20034;-64
2022/10/29 06:25:05;;;;;;;61.03;37.30;;;30.90;99.90;;;;;;4995122;28;20022;-63
2022/10/29 06:27:31;;;;;;;58.63;41.08;;;30.90;99.90;;;;;;4993556;28;20034;-64
2022/10/29 06:29:58;;;;;;;100.93;60.28;;;31.00;99.90;;;;;;4993605;28;20109;-64
2022/10/29 06:32:24;;;;;;;72.35;45.03;;;31.00;99.90;;;;;;4994946;28;20053;-63
2022/10/29 06:34:51;;;;;;;62.60;41.58;;;31.00;99.90;;;;;;4997556;28;20023;-63
2022/10/29 06:37:17;;;;;;;58.95;37.85;;;31.00;99.90;;;;;;5005190;28;20444;-63
2022/10/29 06:39:44;;;;;;;99.95;59.28;;;31.00;99.90;;;;;;5016015;28;20038;-64
2022/10/29 06:42:10;;;;;;;76.70;50.45;;;31.00;99.90;;;;;;5014805;28;20025;-65
2022/10/29 06:44:37;;;;;;;81.78;48.60;;;31.10;99.90;;;;;;5016717;28;20022;-64
2022/10/29 06:47:04;;;;;;;74.28;49.13;;;31.10;99.90;;;;;;5016794;28;20030;-64
2022/10/29 06:49:31;;;;;;;59.20;40.97;;;31.20;99.90;;;;;;5013856;28;20429;-64
2022/10/29 06:51:57;;;;;;;62.63;41.33;;;31.20;99.90;;;;;;5016419;28;20080;-63
2022/10/29 06:54:24;;;;;;;68.65;39.92;;;31.20;99.90;;;;;;5016695;28;20022;-64
2022/10/29 06:56:50;;;;;;;54.10;34.13;;;31.20;99.90;;;;;;5016539;28;20601;-63
2022/10/29 06:59:17;;;;;;;49.78;31.15;;;31.30;99.90;;;;;;5016592;28;20030;-64
2022/10/29 07:01:45;;;;;;;53.58;32.75;;;31.40;99.90;;;;;;5016571;28;20080;-64
2022/10/29 07:04:11;;;;;;;51.60;35.25;;;31.30;99.90;;;;;;5016534;28;20056;-63
2022/10/29 07:06:38;;;;;;;118.82;65.50;;;31.40;99.90;;;;;;5016546;28;20108;-63
2022/10/29 07:09:04;;;;;;;47.35;29.15;;;31.60;99.90;;;;;;5016672;28;20026;-64
2022/10/29 07:11:31;;;;;;;53.47;32.90;;;31.70;99.90;;;;;;5016569;28;20049;-64
2022/10/29 07:13:57;;;;;;;137.95;84.78;;;31.80;99.90;;;;;;5016277;28;20109;-65
2022/10/29 07:16:24;;;;;;;273.60;163.88;;;31.90;99.90;;;;;;5016365;28;20026;-65
2022/10/29 07:18:52;;;;;;;273.33;168.02;;;31.90;99.90;;;;;;5013086;28;20099;-64
2022/10/29 07:21:19;;;;;;;211.43;114.20;;;31.90;99.90;;;;;;5006494;28;20077;-64
2022/10/29 07:23:45;;;;;;;210.95;132.38;;;31.90;99.90;;;;;;5013924;28;20521;-62
2022/10/29 07:26:12;;;;;;;59.40;32.83;;;31.80;99.90;;;;;;5015168;28;20105;-63
2022/10/29 07:28:38;;;;;;;128.40;75.18;;;31.70;99.90;;;;;;5014863;28;20535;-63
2022/10/29 07:31:06;;;;;;;41.08;26.85;;;31.60;99.90;;;;;;5014943;28;20025;-63
2022/10/29 07:33:33;;;;;;;109.70;64.40;;;31.60;99.90;;;;;;5012733;28;20036;-63
2022/10/29 07:36:00;;;;;;;484.23;362.75;;;31.50;99.90;;;;;;5015907;28;20108;-64
2022/10/29 07:38:26;;;;;;;60.53;43.47;;;31.40;99.90;;;;;;5013848;28;21917;-64
2022/10/29 07:40:53;;;;;;;92.22;66.50;;;31.40;99.90;;;;;;5007104;28;20376;-63
2022/10/29 07:43:21;;;;;;;132.45;95.32;;;31.40;99.90;;;;;;4996019;28;20065;-63
2022/10/29 07:45:49;;;;;;;213.07;172.73;;;31.30;99.90;;;;;;4996346;28;20037;-63
2022/10/29 07:48:16;;;;;;;66.22;49.10;;;31.40;99.90;;;;;;4996635;28;20384;-63
2022/10/29 07:50:43;;;;;;;36.70;23.15;;;31.40;99.90;;;;;;4996418;28;20411;-64
2022/10/29 07:53:09;;;;;;;31.58;20.00;;;31.30;99.90;;;;;;4996385;28;20030;-63
2022/10/29 07:55:36;;;;;;;28.98;19.67;;;31.30;99.90;;;;;;4996736;28;20093;-63
2022/10/29 07:58:06;;;;;;;28.35;15.77;;;31.30;99.90;;;;;;4996107;28;20030;-64
2022/10/29 08:00:37;;;;;;;31.83;15.15;;;31.30;99.90;;;;;;4996729;28;20109;-67
2022/10/29 08:03:04;;;;;;;27.33;16.17;;;31.20;99.90;;;;;;4996586;28;20030;-68
2022/10/29 08:05:31;;;;;;;23.80;15.95;;;31.30;99.90;;;;;;5001260;28;20048;-66
2022/10/29 08:07:58;;;;;;;27.48;17.77;;;31.30;99.90;;;;;;5013357;28;20030;-66
2022/10/29 08:10:25;;;;;;;21.40;13.95;;;31.30;99.90;;;;;;5012364;28;20084;-65
2022/10/29 08:12:55;;;;;;;30.92;15.82;;;31.30;99.90;;;;;;5015100;28;20025;-65
2022/10/29 08:15:22;;;;;;;20.73;14.07;;;31.40;99.90;;;;;;5014813;28;20034;-64
2022/10/29 08:17:50;;;;;;;24.48;14.63;;;31.40;99.90;;;;;;5000298;28;20514;-65
2022/10/29 08:20:17;;;;;;;27.10;16.65;;;31.40;99.90;;;;;;5015074;28;20029;-65
2022/10/29 08:22:43;;;;;;;175.45;110.32;;;31.50;99.90;;;;;;5014767;28;20058;-64
2022/10/29 08:25:11;;;;;;;38.97;19.65;;;31.50;99.90;;;;;;5015668;28;20028;-64
2022/10/29 08:27:38;;;;;;;55.67;29.08;;;31.50;99.90;;;;;;5015153;28;20097;-66
2022/10/29 08:30:06;;;;;;;32.90;18.92;;;31.50;99.90;;;;;;5012043;28;20025;-65
2022/10/29 08:32:33;;;;;;;35.70;19.40;;;31.50;99.90;;;;;;5013820;28;20030;-64
2022/10/29 08:35:00;;;;;;;24.73;15.45;;;31.50;99.90;;;;;;5013908;28;20038;-64
2022/10/29 08:37:27;;;;;;;26.30;16.92;;;31.50;99.90;;;;;;5013485;28;20018;-64
2022/10/29 08:39:53;;;;;;;30.08;16.35;;;31.50;99.90;;;;;;5013740;28;20450;-64
2022/10/29 08:42:38;;;;;;;28.80;14.85;;;31.50;99.90;;;;;;5011727;28;20119;-64
2022/10/29 08:45:32;;;;;;;34.78;21.65;;;31.50;99.90;;;;;;5013996;28;20025;-64
2022/10/29 08:48:18;;;;;;;34.67;18.17;;;31.40;99.90;;;;;;4952445;29;20040;-64
2022/10/29 08:50:51;;;;;;;38.17;17.63;;;31.40;99.90;;;;;;4951424;29;20042;-64
2022/10/29 08:53:23;;;;;;;126.82;40.58;;;31.50;99.90;;;;;;4948628;29;20118;-64
2022/10/29 08:55:49;;;;;;;42.73;22.30;;;31.50;99.90;;;;;;4952792;28;20031;-66
2022/10/29 08:58:20;;;;;;;64.47;31.08;;;31.50;99.90;;;;;;4951838;29;20079;-65
2022/10/29 09:00:51;;;;;;;58.03;28.20;;;31.50;99.90;;;;;;4954219;28;20588;-64
2022/10/29 09:03:18;;;;;;;612.28;173.20;;;31.50;99.90;;;;;;4954015;29;20039;-66
2022/10/29 09:06:08;;;;;;;310.75;80.25;;;31.50;99.90;;;;;;4955335;28;20468;-64
2022/10/29 09:08:53;;;;;;;68.25;34.17;;;31.60;99.90;;;;;;4934553;29;20094;-68
2022/10/29 09:11:59;;;;;;;61.33;28.00;;;31.60;99.90;;;;;;4934842;29;20054;-66
2022/10/29 09:14:27;;;;;;;31.70;17.58;;;31.50;99.90;;;;;;4896226;29;20200;-64
2022/10/29 09:16:55;;;;;;;109.65;58.03;;;31.50;99.90;;;;;;4895531;29;20037;-64
2022/10/29 09:19:44;;;;;;;32.30;19.83;;;31.50;99.90;;;;;;4896084;29;20105;-68
2022/10/29 09:22:32;;;;;;;44.95;24.27;;;31.40;99.90;;;;;;4900057;29;20040;-68
2022/10/29 09:25:20;;;;;;;83.47;40.67;;;31.50;99.90;;;;;;4895896;29;20619;-66
2022/10/29 09:28:05;;;;;;;135.38;49.95;;;31.40;99.90;;;;;;4897026;29;20049;-67
2022/10/29 09:30:40;;;;;;;181.88;57.85;;;31.40;99.90;;;;;;4897163;29;20036;-66
2022/10/29 09:33:14;;;;;;;55.83;22.08;;;31.50;99.90;;;;;;4896970;29;20040;-66
2022/10/29 09:35:46;;;;;;;34.83;19.25;;;31.50;99.90;;;;;;4896666;29;20115;-66
2022/10/29 09:38:29;;;;;;;50.35;26.10;;;31.50;99.90;;;;;;4896708;29;20095;-66
2022/10/29 09:41:01;;;;;;;89.93;33.90;;;31.40;99.90;;;;;;4896503;29;20494;-65
2022/10/29 09:43:51;;;;;;;190.38;143.40;;;31.40;99.90;;;;;;4895139;29;20044;-65
2022/10/29 09:46:23;;;;;;;71.43;39.08;;;31.40;99.90;;;;;;4953235;28;20030;-65
2022/10/29 09:49:08;;;;;;;37.65;24.13;;;31.50;99.90;;;;;;4972181;28;20035;-64
2022/10/29 09:51:41;;;;;;;33.25;20.13;;;31.40;99.90;;;;;;4971212;28;20027;-64
2022/10/29 09:54:08;;;;;;;34.58;18.73;;;31.40;99.90;;;;;;4970592;28;20420;-65
2022/10/29 09:56:35;;;;;;;41.22;23.77;;;31.40;99.90;;;;;;4971234;28;20027;-61
2022/10/29 09:59:19;;;;;;;85.85;57.67;;;31.40;99.90;;;;;;5010900;28;20038;-65
2022/10/29 10:01:47;;;;;;;54.78;37.83;;;31.40;99.90;;;;;;5033590;23;20402;-64
2022/10/29 10:04:23;;;;;;;34.15;24.05;;;31.40;99.90;;;;;;5013608;28;20483;-64
2022/10/29 10:07:10;;;;;;;49.42;32.25;;;31.40;99.90;;;;;;5011376;28;20210;-65
2022/10/29 10:09:58;;;;;;;377.70;305.40;;;31.40;99.90;;;;;;5015281;28;20068;-65
2022/10/29 10:12:46;;;;;;;155.85;89.90;;;31.40;99.90;;;;;;5018571;28;20022;-64
2022/10/29 10:15:16;;;;;;;160.43;79.05;;;31.40;99.90;;;;;;5001555;28;20045;-64
2022/10/29 10:18:05;;;;;;;140.75;70.55;;;31.30;99.90;;;;;;5006044;28;20053;-64
2022/10/29 10:20:35;;;;;;;138.27;62.42;;;31.20;99.90;;;;;;5003318;28;20029;-65
2022/10/29 10:23:18;;;;;;;95.68;51.53;;;31.20;99.90;;;;;;5007046;28;20165;-63
2022/10/29 10:25:45;;;;;;;87.47;42.03;;;31.20;99.90;;;;;;5015839;28;20026;-64
2022/10/29 10:28:28;;;;;;;105.85;48.60;;;31.00;99.90;;;;;;5014799;28;20505;-64
2022/10/29 10:31:07;;;;;;;85.28;42.03;;;31.00;99.90;;;;;;5010122;28;20046;-67
2022/10/29 10:33:36;;;;;;;77.63;41.78;;;31.00;99.90;;;;;;5009983;28;20026;-66
2022/10/29 10:36:07;;;;;;;74.32;38.83;;;31.00;99.90;;;;;;5008166;28;20410;-64
2022/10/29 10:38:57;;;;;;;59.53;33.80;;;31.00;99.90;;;;;;5006454;28;20375;-65
2022/10/29 10:41:27;;;;;;;80.32;43.28;;;30.90;99.90;;;;;;5008171;28;20044;-66
2022/10/29 10:44:00;;;;;;;106.60;58.25;;;30.90;99.90;;;;;;5008616;28;20042;-65
2022/10/29 10:46:29;;;;;;;171.63;85.40;;;30.90;99.90;;;;;;5009033;28;20017;-64
2022/10/29 10:49:06;;;;;;;114.85;63.22;;;30.90;99.90;;;;;;5008736;28;20109;-65
2022/10/29 10:51:36;;;;;;;231.73;105.03;;;30.90;99.90;;;;;;5008859;28;20026;-66
2022/10/29 10:54:24;;;;;;;168.93;87.38;;;30.90;99.90;;;;;;5009369;28;20117;-65
2022/10/29 10:56:58;;;;;;;203.35;105.05;;;30.80;99.90;;;;;;5009562;28;20034;-65
2022/10/29 10:59:37;;;;;;;234.75;126.55;;;30.80;99.90;;;;;;5008562;28;20088;-65
2022/10/29 11:02:05;;;;;;;239.68;134.75;;;30.70;99.90;;;;;;5008204;28;20539;-64
2022/10/29 11:04:35;;;;;;;172.50;100.75;;;30.70;99.90;;;;;;5008082;28;20160;-64
2022/10/29 11:07:07;;;;;;;239.10;130.75;;;30.70;99.90;;;;;;4986040;28;20022;-64
2022/10/29 11:09:35;;;;;;;189.15;125.40;;;30.70;99.90;;;;;;4999381;28;20018;-64
2022/10/29 11:12:23;;;;;;;94.85;55.50;;;30.70;99.90;;;;;;5005562;28;20101;-64
2022/10/29 11:14:56;;;;;;;124.97;75.63;;;30.60;99.90;;;;;;5009405;28;20041;-65
2022/10/29 11:17:26;;;;;;;135.38;78.55;;;30.60;99.90;;;;;;5009804;28;20109;-64
2022/10/29 11:19:58;;;;;;;182.95;101.32;;;30.60;99.90;;;;;;5006572;28;20489;-65
2022/10/29 11:22:28;;;;;;;212.70;118.47;;;30.60;99.90;;;;;;5008318;28;20422;-64
2022/10/29 11:25:20;;;;;;;132.07;74.55;;;30.60;99.90;;;;;;5013069;28;20038;-65
2022/10/29 11:27:51;;;;;;;129.17;67.93;;;30.50;99.90;;;;;;5000151;28;20616;-64
2022/10/29 11:30:19;;;;;;;132.45;72.57;;;30.50;99.90;;;;;;4999167;28;20306;-65
2022/10/29 11:33:06;;;;;;;118.70;67.22;;;30.50;99.90;;;;;;4998479;28;20038;-65
2022/10/29 11:35:59;;;;;;;149.82;84.50;;;30.40;99.90;;;;;;4934912;29;20575;-64
2022/10/29 11:38:39;;;;;;;163.68;87.70;;;30.30;99.90;;;;;;4931855;29;20043;-64
2022/10/29 11:41:24;;;;;;;288.77;140.07;;;30.20;99.90;;;;;;4933705;29;20450;-63
2022/10/29 11:43:53;;;;;;;273.67;138.48;;;30.10;99.90;;;;;;4934537;29;20084;-64
2022/10/29 11:46:29;;;;;;;238.32;121.28;;;30.10;99.90;;;;;;4935637;29;20034;-64
2022/10/29 11:49:24;;;;;;;233.90;123.38;;;30.10;99.90;;;;;;4936526;29;20424;-64
2022/10/29 11:52:12;;;;;;;164.40;93.82;;;30.20;99.90;;;;;;4936265;29;20028;-63
2022/10/29 11:54:48;;;;;;;137.57;83.78;;;30.10;99.90;;;;;;4937218;28;20571;-63
2022/10/29 11:57:25;;;;;;;139.32;74.22;;;30.10;99.90;;;;;;4936028;29;20108;-63
2022/10/29 11:59:53;;;;;;;124.85;70.15;;;30.10;99.90;;;;;;4936699;29;20079;-65
2022/10/29 12:02:32;;;;;;;182.32;95.00;;;30.20;99.90;;;;;;4937635;29;20098;-64
2022/10/29 12:04:59;;;;;;;196.05;103.80;;;30.10;99.90;;;;;;4937555;29;20228;-64
2022/10/29 12:07:36;;;;;;;190.75;98.75;;;30.10;99.90;;;;;;5007574;28;20053;-62
2022/10/29 12:10:29;;;;;;;149.85;88.15;;;30.10;99.90;;;;;;4997704;28;20383;-63
2022/10/29 12:13:01;;;;;;;148.23;83.50;;;30.10;99.90;;;;;;5004880;28;20034;-63
2022/10/29 12:15:49;;;;;;;152.60;85.93;;;30.10;99.90;;;;;;4998992;28;20030;-63
2022/10/29 12:18:23;;;;;;;159.23;91.82;;;30.10;99.90;;;;;;4935914;29;20044;-65
2022/10/29 12:20:59;;;;;;;165.18;94.75;;;30.00;99.90;;;;;;4945893;29;20054;-65
2022/10/29 12:23:28;;;;;;;153.68;92.72;;;30.00;99.90;;;;;;4953591;29;20053;-64
2022/10/29 12:25:59;;;;;;;148.73;91.63;;;30.00;99.90;;;;;;4954293;29;20027;-65
2022/10/29 12:28:34;;;;;;;144.77;88.18;;;30.00;99.90;;;;;;4954046;29;20389;-66
2022/10/29 12:31:21;;;;;;;155.20;88.38;;;29.90;99.90;;;;;;4950629;28;20082;-64
2022/10/29 12:34:11;;;;;;;147.27;87.53;;;29.90;99.90;;;;;;4952581;29;20035;-64
2022/10/29 12:37:17;;;;;;;177.35;94.45;;;29.70;99.90;;;;;;4951105;29;20127;-66
2022/10/29 12:39:48;;;;;;;157.48;91.80;;;29.70;99.90;;;;;;4953990;29;20027;-66
2022/10/29 12:42:24;;;;;;;177.65;102.75;;;29.70;99.90;;;;;;4952986;29;20039;-65